createdAt,value
2018-12-16T00:00:54.894Z,1017.39
2018-12-16T00:01:55.010Z,1017.4
2018-12-16T00:02:54.904Z,1017.45
2018-12-16T00:03:55.138Z,1017.38
2018-12-16T00:04:54.849Z,1017.37
2018-12-16T00:05:55.628Z,1017.34
2018-12-16T00:06:54.782Z,1017.38
2018-12-16T00:07:54.839Z,1017.34
2018-12-16T00:08:54.969Z,1017.37
2018-12-16T00:09:55.008Z,1017.31
2018-12-16T00:10:55.633Z,1017.33
2018-12-16T00:11:55.127Z,1017.34
2018-12-16T00:12:54.828Z,1017.33
2018-12-16T00:13:54.864Z,1017.28
2018-12-16T00:14:54.903Z,1017.34
2018-12-16T00:15:54.773Z,1017.36
2018-12-16T00:16:55.152Z,1017.36
2018-12-16T00:17:54.813Z,1017.36
2018-12-16T00:18:54.933Z,1017.36
2018-12-16T00:19:54.831Z,1017.39
2018-12-16T00:20:54.980Z,1017.31
2018-12-16T00:21:54.954Z,1017.37
2018-12-16T00:22:54.930Z,1017.37
2018-12-16T00:23:54.933Z,1017.39
2018-12-16T00:24:55.074Z,1017.33
2018-12-16T00:25:55.545Z,1017.34
2018-12-16T00:26:54.956Z,1017.3
2018-12-16T00:27:54.961Z,1017.25
2018-12-16T00:28:54.821Z,1017.3
2018-12-16T00:29:54.931Z,1017.28
2018-12-16T00:30:55.040Z,1017.25
2018-12-16T00:31:54.805Z,1017.21
2018-12-16T00:32:54.971Z,1017.23
2018-12-16T00:33:55.016Z,1017.19
2018-12-16T00:34:54.940Z,1017.14
2018-12-16T00:35:55.151Z,1017.17
2018-12-16T00:36:54.933Z,1017.1
2018-12-16T00:37:55.166Z,1017.02
2018-12-16T00:38:54.825Z,1017.07
2018-12-16T00:39:54.983Z,1017.09
2018-12-16T00:40:54.770Z,1017.11
2018-12-16T00:41:54.990Z,1017.07
2018-12-16T00:42:54.815Z,1017.04
2018-12-16T00:43:54.815Z,1017.02
2018-12-16T00:44:55.027Z,1017.01
2018-12-16T00:45:54.836Z,1017.03
2018-12-16T00:46:55.183Z,1017.02
2018-12-16T00:47:54.773Z,1017.04
2018-12-16T00:48:54.791Z,1017.04
2018-12-16T00:49:54.718Z,1017.11
2018-12-16T00:50:54.982Z,1017.02
2018-12-16T00:51:54.764Z,1017.05
2018-12-16T00:52:54.808Z,1017.02
2018-12-16T00:53:54.774Z,1017.1
2018-12-16T00:54:54.722Z,1017.08
2018-12-16T00:55:54.757Z,1017.08
2018-12-16T00:56:54.708Z,1017.11
2018-12-16T00:57:54.756Z,1017.09
2018-12-16T00:58:54.847Z,1017.12
2018-12-16T00:59:54.919Z,1017.11
2018-12-16T01:00:54.742Z,1017.09
2018-12-16T01:01:54.810Z,1017.12
2018-12-16T01:02:54.720Z,1017.08
2018-12-16T01:03:55.124Z,1017.09
2018-12-16T01:04:55.004Z,1017.05
2018-12-16T01:05:54.756Z,1017.1
2018-12-16T01:06:54.929Z,1017.09
2018-12-16T01:07:54.794Z,1017.03
2018-12-16T01:08:55.080Z,1017.06
2018-12-16T01:09:54.891Z,1017.06
2018-12-16T01:10:55.034Z,1017
2018-12-16T01:11:54.693Z,1016.97
2018-12-16T01:12:54.716Z,1016.97
2018-12-16T01:13:55.049Z,1016.97
2018-12-16T01:14:54.694Z,1017.07
2018-12-16T01:15:55.070Z,1017.01
2018-12-16T01:16:54.732Z,1017.07
2018-12-16T01:17:55.172Z,1017.03
2018-12-16T01:18:55.051Z,1017.04
2018-12-16T01:19:55.114Z,1017.05
2018-12-16T01:20:55.192Z,1017.08
2018-12-16T01:21:54.763Z,1017.05
2018-12-16T01:22:54.949Z,1017.08
2018-12-16T01:23:54.733Z,1017.13
2018-12-16T01:24:54.926Z,1017.08
2018-12-16T01:25:54.683Z,1017.13
2018-12-16T01:26:55.026Z,1017.11
2018-12-16T01:27:55.088Z,1017.15
2018-12-16T01:28:55.116Z,1017.07
2018-12-16T01:29:55.036Z,1017.12
2018-12-16T01:30:54.754Z,1017.09
2018-12-16T01:31:54.710Z,1017.1
2018-12-16T01:32:55.348Z,1017.09
2018-12-16T01:33:54.751Z,1017.1
2018-12-16T01:34:54.687Z,1017.06
2018-12-16T01:35:54.895Z,1017.05
2018-12-16T01:36:54.748Z,1017.04
2018-12-16T01:37:54.856Z,1017.02
2018-12-16T01:38:54.720Z,1016.96
2018-12-16T01:39:54.717Z,1016.93
2018-12-16T01:40:54.972Z,1016.94
2018-12-16T01:41:54.713Z,1016.87
2018-12-16T01:42:54.971Z,1016.89
2018-12-16T01:43:55.199Z,1016.86
2018-12-16T01:44:54.879Z,1016.82
2018-12-16T01:45:54.748Z,1016.87
2018-12-16T01:46:54.916Z,1016.86
2018-12-16T01:47:54.814Z,1016.83
2018-12-16T01:48:54.821Z,1016.77
2018-12-16T01:49:54.729Z,1016.73
2018-12-16T01:50:54.817Z,1016.75
2018-12-16T01:51:54.790Z,1016.74
2018-12-16T01:52:54.803Z,1016.7
2018-12-16T01:53:54.666Z,1016.73
2018-12-16T01:54:54.706Z,1016.67
2018-12-16T01:55:54.708Z,1016.71
2018-12-16T01:56:55.035Z,1016.7
2018-12-16T01:57:54.746Z,1016.69
2018-12-16T01:58:54.935Z,1016.72
2018-12-16T01:59:54.692Z,1016.69
2018-12-16T02:00:54.745Z,1016.73
2018-12-16T02:01:54.641Z,1016.73
2018-12-16T02:02:55.001Z,1016.67
2018-12-16T02:03:54.615Z,1016.7
2018-12-16T02:04:55.055Z,1016.64
2018-12-16T02:05:54.647Z,1016.66
2018-12-16T02:06:54.706Z,1016.67
2018-12-16T02:07:54.746Z,1016.65
2018-12-16T02:08:54.683Z,1016.64
2018-12-16T02:09:54.742Z,1016.6
2018-12-16T02:10:54.629Z,1016.61
2018-12-16T02:11:54.697Z,1016.58
2018-12-16T02:12:55.000Z,1016.58
2018-12-16T02:13:54.875Z,1016.52
2018-12-16T02:14:54.611Z,1016.52
2018-12-16T02:15:54.763Z,1016.49
2018-12-16T02:16:54.671Z,1016.48
2018-12-16T02:17:54.618Z,1016.41
2018-12-16T02:18:54.644Z,1016.37
2018-12-16T02:19:54.774Z,1016.36
2018-12-16T02:20:54.818Z,1016.32
2018-12-16T02:21:54.773Z,1016.23
2018-12-16T02:22:57.271Z,1016.23
2018-12-16T02:23:54.617Z,1016.22
2018-12-16T02:24:54.845Z,1016.17
2018-12-16T02:25:54.689Z,1016.14
2018-12-16T02:26:54.596Z,1016.11
2018-12-16T02:27:54.598Z,1016.06
2018-12-16T02:28:54.622Z,1016.05
2018-12-16T02:29:54.689Z,1016
2018-12-16T02:30:54.698Z,1016
2018-12-16T02:31:54.658Z,1015.95
2018-12-16T02:32:54.664Z,1015.99
2018-12-16T02:33:54.622Z,1015.97
2018-12-16T02:34:54.594Z,1015.93
2018-12-16T02:35:54.922Z,1015.96
2018-12-16T02:36:54.620Z,1015.93
2018-12-16T02:37:54.645Z,1015.93
2018-12-16T02:38:54.596Z,1015.87
2018-12-16T02:39:54.606Z,1015.87
2018-12-16T02:40:54.616Z,1015.84
2018-12-16T02:41:54.681Z,1015.86
2018-12-16T02:42:54.696Z,1015.83
2018-12-16T02:43:54.636Z,1015.82
2018-12-16T02:44:54.620Z,1015.78
2018-12-16T02:45:54.765Z,1015.73
2018-12-16T02:46:54.838Z,1015.72
2018-12-16T02:47:54.801Z,1015.73
2018-12-16T02:48:54.646Z,1015.69
2018-12-16T02:49:54.715Z,1015.65
2018-12-16T02:50:54.961Z,1015.67
2018-12-16T02:51:54.636Z,1015.59
2018-12-16T02:52:54.566Z,1015.6
2018-12-16T02:53:54.623Z,1015.62
2018-12-16T02:54:54.599Z,1015.53
2018-12-16T02:55:54.591Z,1015.54
2018-12-16T02:56:54.761Z,1015.49
2018-12-16T02:57:54.652Z,1015.47
2018-12-16T02:58:54.608Z,1015.4
2018-12-16T02:59:54.699Z,1015.41
2018-12-16T03:00:54.629Z,1015.33
2018-12-16T03:01:54.682Z,1015.31
2018-12-16T03:02:54.669Z,1015.24
2018-12-16T03:03:55.216Z,1015.23
2018-12-16T03:04:54.571Z,1015.29
2018-12-16T03:05:54.728Z,1015.21
2018-12-16T03:06:54.707Z,1015.27
2018-12-16T03:07:54.994Z,1015.25
2018-12-16T03:08:54.615Z,1015.18
2018-12-16T03:09:54.589Z,1015.24
2018-12-16T03:10:54.766Z,1015.22
2018-12-16T03:11:54.560Z,1015.21
2018-12-16T03:12:54.554Z,1015.17
2018-12-16T03:13:54.549Z,1015.19
2018-12-16T03:14:54.623Z,1015.12
2018-12-16T03:15:54.652Z,1015.1
2018-12-16T03:16:54.526Z,1015.05
2018-12-16T03:17:54.523Z,1015.05
2018-12-16T03:18:54.862Z,1015.02
2018-12-16T03:19:54.573Z,1014.95
2018-12-16T03:20:54.927Z,1014.92
2018-12-16T03:21:54.679Z,1014.88
2018-12-16T03:22:54.787Z,1014.87
2018-12-16T03:23:54.641Z,1014.87
2018-12-16T03:24:54.647Z,1014.84
2018-12-16T03:25:54.711Z,1014.85
2018-12-16T03:26:54.601Z,1014.84
2018-12-16T03:27:54.597Z,1014.82
2018-12-16T03:28:54.592Z,1014.76
2018-12-16T03:29:54.580Z,1014.79
2018-12-16T03:30:54.570Z,1014.81
2018-12-16T03:31:54.548Z,1014.81
2018-12-16T03:32:54.674Z,1014.82
2018-12-16T03:33:54.788Z,1014.76
2018-12-16T03:34:54.517Z,1014.7
2018-12-16T03:35:54.725Z,1014.71
2018-12-16T03:36:54.574Z,1014.67
2018-12-16T03:37:54.549Z,1014.67
2018-12-16T03:38:54.501Z,1014.63
2018-12-16T03:39:54.760Z,1014.6
2018-12-16T03:40:54.591Z,1014.57
2018-12-16T03:41:54.883Z,1014.61
2018-12-16T03:42:54.706Z,1014.57
2018-12-16T03:43:54.679Z,1014.53
2018-12-16T03:44:54.647Z,1014.51
2018-12-16T03:45:54.881Z,1014.39
2018-12-16T03:46:54.716Z,1014.4
2018-12-16T03:47:54.565Z,1014.4
2018-12-16T03:48:54.557Z,1014.32
2018-12-16T03:49:54.677Z,1014.24
2018-12-16T03:50:54.660Z,1014.17
2018-12-16T03:51:54.617Z,1014.11
2018-12-16T03:52:54.673Z,1014.1
2018-12-16T03:53:54.625Z,1014.05
2018-12-16T03:54:54.617Z,1014.05
2018-12-16T03:55:54.598Z,1014.02
2018-12-16T03:56:54.484Z,1013.99
2018-12-16T03:57:54.553Z,1013.98
2018-12-16T03:58:54.489Z,1013.97
2018-12-16T03:59:54.633Z,1013.98
2018-12-16T04:00:54.619Z,1013.95
2018-12-16T04:01:54.476Z,1014.01
2018-12-16T04:02:54.473Z,1013.99
2018-12-16T04:03:54.513Z,1013.96
2018-12-16T04:04:54.486Z,1013.94
2018-12-16T04:05:54.542Z,1013.97
2018-12-16T04:06:54.431Z,1013.96
2018-12-16T04:07:54.564Z,1013.94
2018-12-16T04:08:54.493Z,1013.96
2018-12-16T04:09:54.517Z,1013.99
2018-12-16T04:10:54.458Z,1014.01
2018-12-16T04:11:54.477Z,1013.96
2018-12-16T04:12:54.483Z,1013.95
2018-12-16T04:13:54.462Z,1013.9
2018-12-16T04:14:54.471Z,1013.87
2018-12-16T04:15:54.579Z,1013.89
2018-12-16T04:16:54.434Z,1013.88
2018-12-16T04:17:54.461Z,1013.85
2018-12-16T04:18:54.441Z,1013.89
2018-12-16T04:19:54.452Z,1013.85
2018-12-16T04:20:54.467Z,1013.91
2018-12-16T04:21:55.274Z,1013.93
2018-12-16T04:22:54.639Z,1013.84
2018-12-16T04:23:54.570Z,1013.85
2018-12-16T04:24:54.611Z,1013.88
2018-12-16T04:25:54.597Z,1013.8
2018-12-16T04:26:54.916Z,1013.84
2018-12-16T04:27:54.613Z,1013.83
2018-12-16T04:28:54.509Z,1013.87
2018-12-16T04:29:54.491Z,1013.82
2018-12-16T04:30:54.633Z,1013.83
2018-12-16T04:31:54.586Z,1013.9
2018-12-16T04:32:54.728Z,1013.82
2018-12-16T04:33:55.273Z,1013.83
2018-12-16T04:34:55.247Z,1013.82
2018-12-16T04:35:54.822Z,1013.75
2018-12-16T04:36:54.617Z,1013.68
2018-12-16T04:37:54.421Z,1013.72
2018-12-16T04:38:54.560Z,1013.82
2018-12-16T04:39:54.515Z,1013.83
2018-12-16T04:40:54.505Z,1013.79
2018-12-16T04:41:54.430Z,1013.85
2018-12-16T04:42:54.596Z,1013.78
2018-12-16T04:43:54.568Z,1013.82
2018-12-16T04:44:54.468Z,1013.78
2018-12-16T04:45:54.473Z,1013.83
2018-12-16T04:46:54.483Z,1013.87
2018-12-16T04:47:54.448Z,1013.91
2018-12-16T04:48:54.461Z,1013.95
2018-12-16T04:49:54.472Z,1013.92
2018-12-16T04:50:54.440Z,1013.94
2018-12-16T04:51:54.402Z,1013.93
2018-12-16T04:52:54.562Z,1013.94
2018-12-16T04:53:54.649Z,1013.92
2018-12-16T04:54:54.641Z,1013.95
2018-12-16T04:55:54.408Z,1014
2018-12-16T04:56:54.601Z,1014.05
2018-12-16T04:57:54.458Z,1014.03
2018-12-16T04:58:54.461Z,1014.06
2018-12-16T04:59:54.413Z,1014.1
2018-12-16T05:00:54.612Z,1014.11
2018-12-16T05:01:54.622Z,1014.12
2018-12-16T05:02:54.408Z,1014.12
2018-12-16T05:03:54.481Z,1014.12
2018-12-16T05:04:54.693Z,1014.13
2018-12-16T05:05:54.406Z,1014.08
2018-12-16T05:06:54.511Z,1014.09
2018-12-16T05:07:54.564Z,1014.09
2018-12-16T05:08:54.424Z,1014.11
2018-12-16T05:09:54.423Z,1014.13
2018-12-16T05:10:54.431Z,1014.11
2018-12-16T05:11:54.509Z,1014.14
2018-12-16T05:12:54.493Z,1014.2
2018-12-16T05:13:54.499Z,1014.17
2018-12-16T05:14:54.487Z,1014.06
2018-12-16T05:15:54.444Z,1014.07
2018-12-16T05:16:54.751Z,1014.13
2018-12-16T05:17:54.388Z,1014.08
2018-12-16T05:18:54.414Z,1014.06
2018-12-16T05:19:55.203Z,1014.08
2018-12-16T05:20:54.385Z,1014.04
2018-12-16T05:21:54.666Z,1014
2018-12-16T05:22:54.709Z,1014.01
2018-12-16T05:23:54.607Z,1014.01
2018-12-16T05:24:54.554Z,1014.07
2018-12-16T05:25:55.202Z,1014.05
2018-12-16T05:26:54.446Z,1013.99
2018-12-16T05:27:54.525Z,1013.95
2018-12-16T05:28:55.228Z,1013.93
2018-12-16T05:29:58.360Z,1013.91
2018-12-16T05:30:54.517Z,1013.87
2018-12-16T05:31:54.384Z,1013.84
2018-12-16T05:32:54.343Z,1013.74
2018-12-16T05:33:55.152Z,1013.7
2018-12-16T05:34:54.500Z,1013.71
2018-12-16T05:35:54.535Z,1013.68
2018-12-16T05:36:54.715Z,1013.67
2018-12-16T05:37:54.340Z,1013.62
2018-12-16T05:38:54.538Z,1013.61
2018-12-16T05:39:54.390Z,1013.65
2018-12-16T05:40:54.370Z,1013.64
2018-12-16T05:41:54.378Z,1013.63
2018-12-16T05:42:54.424Z,1013.6
2018-12-16T05:43:54.394Z,1013.67
2018-12-16T05:44:54.351Z,1013.66
2018-12-16T05:45:54.463Z,1013.64
2018-12-16T05:46:54.435Z,1013.76
2018-12-16T05:47:54.462Z,1013.72
2018-12-16T05:48:54.332Z,1013.77
2018-12-16T05:49:54.374Z,1013.72
2018-12-16T05:50:54.372Z,1013.68
2018-12-16T05:51:54.315Z,1013.62
2018-12-16T05:52:54.374Z,1013.67
2018-12-16T05:53:54.392Z,1013.62
2018-12-16T05:54:54.323Z,1013.56
2018-12-16T05:55:54.381Z,1013.57
2018-12-16T05:56:54.378Z,1013.52
2018-12-16T05:57:54.380Z,1013.48
2018-12-16T05:58:54.344Z,1013.49
2018-12-16T05:59:54.746Z,1013.49
2018-12-16T06:00:54.360Z,1013.47
2018-12-16T06:01:54.491Z,1013.48
2018-12-16T06:02:54.467Z,1013.46
2018-12-16T06:03:55.080Z,1013.47
2018-12-16T06:04:54.510Z,1013.52
2018-12-16T06:05:54.454Z,1013.49
2018-12-16T06:06:54.460Z,1013.45
2018-12-16T06:07:54.552Z,1013.48
2018-12-16T06:08:54.369Z,1013.47
2018-12-16T06:09:54.533Z,1013.43
2018-12-16T06:10:54.517Z,1013.4
2018-12-16T06:11:54.389Z,1013.42
2018-12-16T06:12:54.482Z,1013.43
2018-12-16T06:13:55.151Z,1013.42
2018-12-16T06:14:54.511Z,1013.48
2018-12-16T06:15:54.393Z,1013.47
2018-12-16T06:16:54.269Z,1013.43
2018-12-16T06:17:54.324Z,1013.36
2018-12-16T06:18:55.108Z,1013.34
2018-12-16T06:19:54.296Z,1013.3
2018-12-16T06:20:54.334Z,1013.32
2018-12-16T06:21:54.391Z,1013.31
2018-12-16T06:22:54.263Z,1013.35
2018-12-16T06:23:55.993Z,1013.34
2018-12-16T06:24:54.362Z,1013.36
2018-12-16T06:25:54.762Z,1013.44
2018-12-16T06:26:54.734Z,1013.43
2018-12-16T06:27:54.836Z,1013.4
2018-12-16T06:28:54.262Z,1013.33
2018-12-16T06:29:54.483Z,1013.35
2018-12-16T06:30:54.293Z,1013.3
2018-12-16T06:31:55.433Z,1013.24
2018-12-16T06:32:54.434Z,1013.28
2018-12-16T06:33:54.578Z,1013.27
2018-12-16T06:34:54.500Z,1013.3
2018-12-16T06:35:54.332Z,1013.37
2018-12-16T06:36:54.477Z,1013.39
2018-12-16T06:37:54.474Z,1013.37
2018-12-16T06:38:54.266Z,1013.4
2018-12-16T06:39:55.122Z,1013.44
2018-12-16T06:40:54.307Z,1013.46
2018-12-16T06:41:55.449Z,1013.54
2018-12-16T06:42:54.260Z,1013.55
2018-12-16T06:43:54.285Z,1013.54
2018-12-16T06:44:54.365Z,1013.45
2018-12-16T06:45:54.412Z,1013.37
2018-12-16T06:46:54.451Z,1013.37
2018-12-16T06:47:54.341Z,1013.3
2018-12-16T06:48:54.282Z,1013.34
2018-12-16T06:49:54.254Z,1013.3
2018-12-16T06:50:54.668Z,1013.35
2018-12-16T06:51:54.411Z,1013.36
2018-12-16T06:52:54.280Z,1013.46
2018-12-16T06:53:54.485Z,1013.51
2018-12-16T06:54:54.544Z,1013.48
2018-12-16T06:55:54.454Z,1013.5
2018-12-16T06:56:54.367Z,1013.48
2018-12-16T06:57:54.686Z,1013.45
2018-12-16T06:58:54.357Z,1013.48
2018-12-16T06:59:54.274Z,1013.49
2018-12-16T07:00:54.362Z,1013.45
2018-12-16T07:01:54.337Z,1013.53
2018-12-16T07:02:54.414Z,1013.53
2018-12-16T07:03:54.445Z,1013.58
2018-12-16T07:04:54.292Z,1013.61
2018-12-16T07:05:54.509Z,1013.65
2018-12-16T07:06:54.225Z,1013.59
2018-12-16T07:07:54.455Z,1013.62
2018-12-16T07:08:54.470Z,1013.6
2018-12-16T07:09:54.356Z,1013.69
2018-12-16T07:10:54.283Z,1013.68
2018-12-16T07:11:54.208Z,1013.63
2018-12-16T07:12:54.249Z,1013.63
2018-12-16T07:13:54.294Z,1013.55
2018-12-16T07:14:54.775Z,1013.61
2018-12-16T07:15:54.340Z,1013.6
2018-12-16T07:16:54.237Z,1013.51
2018-12-16T07:17:54.213Z,1013.61
2018-12-16T07:18:54.384Z,1013.69
2018-12-16T07:19:54.286Z,1013.63
2018-12-16T07:20:54.450Z,1013.66
2018-12-16T07:21:54.283Z,1013.71
2018-12-16T07:22:54.318Z,1013.68
2018-12-16T07:23:54.210Z,1013.69
2018-12-16T07:24:54.273Z,1013.71
2018-12-16T07:25:54.310Z,1013.71
2018-12-16T07:26:54.346Z,1013.69
2018-12-16T07:27:54.288Z,1013.69
2018-12-16T07:28:54.281Z,1013.73
2018-12-16T07:29:54.204Z,1013.72
2018-12-16T07:30:54.298Z,1013.78
2018-12-16T07:31:54.312Z,1013.78
2018-12-16T07:32:54.184Z,1013.76
2018-12-16T07:33:54.525Z,1013.71
2018-12-16T07:34:54.230Z,1013.75
2018-12-16T07:35:54.615Z,1013.77
2018-12-16T07:36:54.206Z,1013.84
2018-12-16T07:37:54.381Z,1013.81
2018-12-16T07:38:54.439Z,1013.81
2018-12-16T07:39:54.617Z,1013.86
2018-12-16T07:40:54.383Z,1013.87
2018-12-16T07:41:54.258Z,1013.89
2018-12-16T07:42:54.361Z,1013.94
2018-12-16T07:43:55.016Z,1013.94
2018-12-16T07:44:54.589Z,1013.96
2018-12-16T07:45:54.172Z,1013.96
2018-12-16T07:46:54.261Z,1013.94
2018-12-16T07:47:54.212Z,1013.94
2018-12-16T07:48:54.502Z,1013.91
2018-12-16T07:49:54.376Z,1013.92
2018-12-16T07:50:54.196Z,1013.9
2018-12-16T07:51:54.439Z,1013.88
2018-12-16T07:52:54.204Z,1013.96
2018-12-16T07:53:54.615Z,1013.93
2018-12-16T07:54:54.377Z,1013.95
2018-12-16T07:55:54.277Z,1014.03
2018-12-16T07:56:54.289Z,1014.07
2018-12-16T07:57:54.361Z,1014.09
2018-12-16T07:58:54.385Z,1014.12
2018-12-16T07:59:54.118Z,1014.15
2018-12-16T08:00:54.537Z,1014.14
2018-12-16T08:01:54.283Z,1014.18
2018-12-16T08:02:54.374Z,1014.18
2018-12-16T08:03:54.311Z,1014.23
2018-12-16T08:04:54.131Z,1014.21
2018-12-16T08:05:54.141Z,1014.22
2018-12-16T08:06:54.361Z,1014.19
2018-12-16T08:07:54.323Z,1014.23
2018-12-16T08:08:54.225Z,1014.21
2018-12-16T08:09:54.233Z,1014.19
2018-12-16T08:10:54.367Z,1014.17
2018-12-16T08:11:54.198Z,1014.17
2018-12-16T08:12:54.223Z,1014.22
2018-12-16T08:13:54.466Z,1014.24
2018-12-16T08:14:54.217Z,1014.27
2018-12-16T08:15:54.158Z,1014.2
2018-12-16T08:16:54.282Z,1014.24
2018-12-16T08:17:54.377Z,1014.24
2018-12-16T08:18:54.110Z,1014.25
2018-12-16T08:19:54.172Z,1014.28
2018-12-16T08:20:54.179Z,1014.32
2018-12-16T08:21:54.342Z,1014.34
2018-12-16T08:22:54.261Z,1014.32
2018-12-16T08:23:54.962Z,1014.29
2018-12-16T08:24:54.342Z,1014.29
2018-12-16T08:25:54.197Z,1014.3
2018-12-16T08:26:54.936Z,1014.34
2018-12-16T08:27:54.279Z,1014.32
2018-12-16T08:28:54.218Z,1014.33
2018-12-16T08:29:54.393Z,1014.35
2018-12-16T08:30:54.152Z,1014.3
2018-12-16T08:31:54.358Z,1014.32
2018-12-16T08:32:54.167Z,1014.36
2018-12-16T08:33:54.208Z,1014.35
2018-12-16T08:34:54.186Z,1014.35
2018-12-16T08:35:54.307Z,1014.39
2018-12-16T08:36:54.128Z,1014.38
2018-12-16T08:37:54.196Z,1014.39
2018-12-16T08:38:54.392Z,1014.39
2018-12-16T08:39:54.235Z,1014.41
2018-12-16T08:40:54.519Z,1014.38
2018-12-16T08:41:54.240Z,1014.4
2018-12-16T08:42:54.199Z,1014.42
2018-12-16T08:43:54.259Z,1014.39
2018-12-16T08:44:54.228Z,1014.41
2018-12-16T08:45:54.296Z,1014.43
2018-12-16T08:46:54.173Z,1014.49
2018-12-16T08:47:54.323Z,1014.52
2018-12-16T08:48:54.903Z,1014.53
2018-12-16T08:49:54.761Z,1014.51
2018-12-16T08:50:54.199Z,1014.51
2018-12-16T08:51:54.862Z,1014.44
2018-12-16T08:52:55.131Z,1014.43
2018-12-16T08:53:54.195Z,1014.46
2018-12-16T08:54:54.385Z,1014.5
2018-12-16T08:55:54.254Z,1014.46
2018-12-16T08:56:54.518Z,1014.53
2018-12-16T08:57:54.138Z,1014.5
2018-12-16T08:58:54.182Z,1014.5
2018-12-16T08:59:54.061Z,1014.49
2018-12-16T09:00:54.109Z,1014.51
2018-12-16T09:01:54.070Z,1014.47
2018-12-16T09:02:54.082Z,1014.52
2018-12-16T09:03:54.116Z,1014.52
2018-12-16T09:04:54.066Z,1014.48
2018-12-16T09:05:54.074Z,1014.59
2018-12-16T09:06:54.076Z,1014.59
2018-12-16T09:07:54.157Z,1014.59
2018-12-16T09:08:54.114Z,1014.64
2018-12-16T09:09:54.155Z,1014.6
2018-12-16T09:10:54.287Z,1014.62
2018-12-16T09:11:54.117Z,1014.68
2018-12-16T09:12:54.097Z,1014.66
2018-12-16T09:13:54.436Z,1014.71
2018-12-16T09:14:54.086Z,1014.72
2018-12-16T09:15:54.862Z,1014.69
2018-12-16T09:16:54.387Z,1014.71
2018-12-16T09:17:54.157Z,1014.72
2018-12-16T09:18:54.036Z,1014.73
2018-12-16T09:19:54.150Z,1014.77
2018-12-16T09:20:54.154Z,1014.8
2018-12-16T09:21:54.422Z,1014.81
2018-12-16T09:22:54.532Z,1014.81
2018-12-16T09:23:54.212Z,1014.82
2018-12-16T09:24:54.257Z,1014.83
2018-12-16T09:25:54.164Z,1014.82
2018-12-16T09:26:54.045Z,1014.85
2018-12-16T09:27:54.127Z,1014.86
2018-12-16T09:28:54.095Z,1014.82
2018-12-16T09:29:54.184Z,1014.85
2018-12-16T09:30:58.347Z,1014.9
2018-12-16T09:31:54.231Z,1014.9
2018-12-16T09:32:54.828Z,1014.91
2018-12-16T09:33:54.073Z,1014.92
2018-12-16T09:34:54.124Z,1014.92
2018-12-16T09:35:54.087Z,1014.89
2018-12-16T09:36:54.240Z,1014.89
2018-12-16T09:37:54.486Z,1014.88
2018-12-16T09:38:54.072Z,1014.85
2018-12-16T09:39:54.024Z,1014.95
2018-12-16T09:40:54.048Z,1014.92
2018-12-16T09:41:54.091Z,1014.91
2018-12-16T09:42:54.003Z,1014.91
2018-12-16T09:43:53.995Z,1014.92
2018-12-16T09:44:53.998Z,1014.92
2018-12-16T09:45:54.066Z,1014.88
2018-12-16T09:46:54.125Z,1014.94
2018-12-16T09:47:54.363Z,1014.92
2018-12-16T09:48:54.022Z,1014.93
2018-12-16T09:49:54.392Z,1014.94
2018-12-16T09:50:54.227Z,1014.94
2018-12-16T09:51:54.011Z,1014.91
2018-12-16T09:52:54.210Z,1014.89
2018-12-16T09:53:54.058Z,1014.82
2018-12-16T09:54:54.036Z,1014.84
2018-12-16T09:55:54.376Z,1014.9
2018-12-16T09:56:54.016Z,1014.9
2018-12-16T09:57:54.154Z,1014.89
2018-12-16T09:58:54.046Z,1014.98
2018-12-16T09:59:54.066Z,1014.98
2018-12-16T10:00:54.407Z,1014.92
2018-12-16T10:01:54.127Z,1014.93
2018-12-16T10:02:54.142Z,1014.92
2018-12-16T10:03:53.981Z,1014.91
2018-12-16T10:04:54.224Z,1014.9
2018-12-16T10:05:54.463Z,1014.86
2018-12-16T10:06:54.202Z,1014.88
2018-12-16T10:07:54.186Z,1014.92
2018-12-16T10:08:54.192Z,1014.93
2018-12-16T10:09:54.176Z,1014.92
2018-12-16T10:10:54.269Z,1014.9
2018-12-16T10:11:53.992Z,1014.89
2018-12-16T10:12:54.196Z,1014.91
2018-12-16T10:13:54.535Z,1014.89
2018-12-16T10:14:54.094Z,1014.82
2018-12-16T10:15:54.178Z,1014.83
2018-12-16T10:16:53.970Z,1014.85
2018-12-16T10:17:54.012Z,1014.84
2018-12-16T10:18:54.119Z,1014.79
2018-12-16T10:19:53.999Z,1014.76
2018-12-16T10:20:54.116Z,1014.82
2018-12-16T10:21:54.793Z,1014.77
2018-12-16T10:22:54.100Z,1014.81
2018-12-16T10:23:53.970Z,1014.81
2018-12-16T10:24:54.803Z,1014.8
2018-12-16T10:25:54.011Z,1014.82
2018-12-16T10:26:54.127Z,1014.77
2018-12-16T10:27:53.952Z,1014.79
2018-12-16T10:28:54.241Z,1014.8
2018-12-16T10:29:53.973Z,1014.85
2018-12-16T10:30:54.076Z,1014.78
2018-12-16T10:31:54.169Z,1014.83
2018-12-16T10:32:53.949Z,1014.78
2018-12-16T10:33:54.112Z,1014.8
2018-12-16T10:34:53.971Z,1014.74
2018-12-16T10:35:54.184Z,1014.74
2018-12-16T10:36:54.144Z,1014.75
2018-12-16T10:37:53.970Z,1014.68
2018-12-16T10:38:57.265Z,1014.68
2018-12-16T10:39:54.066Z,1014.68
2018-12-16T10:40:56.846Z,1014.59
2018-12-16T10:41:55.070Z,1014.65
2018-12-16T10:42:54.190Z,1014.6
2018-12-16T10:43:54.329Z,1014.66
2018-12-16T10:44:53.989Z,1014.61
2018-12-16T10:45:54.247Z,1014.64
2018-12-16T10:46:54.074Z,1014.55
2018-12-16T10:47:54.036Z,1014.58
2018-12-16T10:48:54.016Z,1014.58
2018-12-16T10:49:54.091Z,1014.57
2018-12-16T10:50:54.079Z,1014.54
2018-12-16T10:51:54.096Z,1014.48
2018-12-16T10:52:54.007Z,1014.48
2018-12-16T10:53:54.603Z,1014.46
2018-12-16T10:54:58.852Z,1014.44
2018-12-16T10:55:53.994Z,1014.47
2018-12-16T10:56:55.416Z,1014.45
2018-12-16T10:57:54.775Z,1014.47
2018-12-16T10:58:54.097Z,1014.47
2018-12-16T10:59:54.107Z,1014.44
2018-12-16T11:00:54.007Z,1014.43
2018-12-16T11:01:54.192Z,1014.44
2018-12-16T11:02:59.082Z,1014.51
2018-12-16T11:03:58.363Z,1014.48
2018-12-16T11:04:57.373Z,1014.49
2018-12-16T11:05:56.515Z,1014.5
2018-12-16T11:06:55.423Z,1014.49
2018-12-16T11:07:55.430Z,1014.5
2018-12-16T11:08:55.639Z,1014.51
2018-12-16T11:09:54.430Z,1014.48
2018-12-16T11:10:54.766Z,1014.47
2018-12-16T11:11:54.637Z,1014.57
2018-12-16T11:12:56.861Z,1014.57
2018-12-16T11:13:58.777Z,1014.56
2018-12-16T11:14:58.557Z,1014.51
2018-12-16T11:15:57.085Z,1014.53
2018-12-16T11:16:55.383Z,1014.53
2018-12-16T11:17:54.913Z,1014.52
2018-12-16T11:18:55.732Z,1014.42
2018-12-16T11:19:54.450Z,1014.47
2018-12-16T11:20:55.943Z,1014.44
2018-12-16T11:21:55.718Z,1014.38
2018-12-16T11:22:58.100Z,1014.42
2018-12-16T11:23:56.337Z,1014.42
2018-12-16T11:24:56.609Z,1014.4
2018-12-16T11:25:55.239Z,1014.41
2018-12-16T11:26:57.043Z,1014.43
2018-12-16T11:28:58.641Z,1014.46
2018-12-16T11:29:56.366Z,1014.47
2018-12-16T11:30:56.146Z,1014.46
2018-12-16T11:31:55.539Z,1014.48
2018-12-16T11:32:56.649Z,1014.51
2018-12-16T11:33:55.385Z,1014.52
2018-12-16T11:34:56.134Z,1014.55
2018-12-16T11:35:55.582Z,1014.53
2018-12-16T11:36:56.429Z,1014.54
2018-12-16T11:37:59.880Z,1014.5
2018-12-16T11:38:55.812Z,1014.48
2018-12-16T11:39:57.066Z,1014.44
2018-12-16T11:40:55.700Z,1014.46
2018-12-16T11:41:55.855Z,1014.44
2018-12-16T11:42:56.015Z,1014.41
2018-12-16T11:43:54.474Z,1014.44
2018-12-16T11:44:55.792Z,1014.46
2018-12-16T11:45:55.901Z,1014.47
2018-12-16T11:46:55.210Z,1014.45
2018-12-16T11:47:58.681Z,1014.38
2018-12-16T11:48:58.492Z,1014.39
2018-12-16T11:49:55.863Z,1014.37
2018-12-16T11:50:55.897Z,1014.32
2018-12-16T11:51:56.792Z,1014.31
2018-12-16T11:52:55.837Z,1014.23
2018-12-16T11:53:56.100Z,1014.25
2018-12-16T11:54:56.350Z,1014.22
2018-12-16T11:55:55.633Z,1014.21
2018-12-16T11:56:56.046Z,1014.23
2018-12-16T11:57:56.122Z,1014.26
2018-12-16T11:58:55.904Z,1014.21
2018-12-16T11:59:54.416Z,1014.2
2018-12-16T12:01:07.196Z,1014.22
2018-12-16T12:03:09.509Z,1014.26
2018-12-16T12:03:57.724Z,1014.26
2018-12-16T12:04:56.778Z,1014.26
2018-12-16T12:05:57.465Z,1014.25
2018-12-16T12:06:54.314Z,1014.25
2018-12-16T12:07:54.077Z,1014.27
2018-12-16T12:08:54.026Z,1014.27
2018-12-16T12:09:54.267Z,1014.32
2018-12-16T12:10:53.979Z,1014.32